sensor_id;sensor_type;location;lat;lon;timestamp;temperature;humidity
25352;DHT22;13304;48.464;8.712;2022-12-18T00:00:43;-6.20;74.20
25352;DHT22;13304;48.464;8.712;2022-12-18T00:03:09;-6.20;74.50
25352;DHT22;13304;48.464;8.712;2022-12-18T00:05:35;-6.20;74.60
25352;DHT22;13304;48.464;8.712;2022-12-18T00:08:02;-6.20;74.60
25352;DHT22;13304;48.464;8.712;2022-12-18T00:10:28;-6.20;74.70
25352;DHT22;13304;48.464;8.712;2022-12-18T00:12:54;-6.10;74.90
25352;DHT22;13304;48.464;8.712;2022-12-18T00:15:20;-6.20;75.00
25352;DHT22;13304;48.464;8.712;2022-12-18T00:17:46;-6.10;75.00
25352;DHT22;13304;48.464;8.712;2022-12-18T00:20:11;-6.10;75.00
25352;DHT22;13304;48.464;8.712;2022-12-18T00:22:37;-6.10;74.90
25352;DHT22;13304;48.464;8.712;2022-12-18T00:25:03;-6.10;75.00
25352;DHT22;13304;48.464;8.712;2022-12-18T00:27:28;-6.10;75.00
25352;DHT22;13304;48.464;8.712;2022-12-18T00:29:54;-6.00;75.10
25352;DHT22;13304;48.464;8.712;2022-12-18T00:32:20;-6.10;75.00
25352;DHT22;13304;48.464;8.712;2022-12-18T00:34:45;-6.00;75.00
25352;DHT22;13304;48.464;8.712;2022-12-18T00:37:11;-6.00;75.00
25352;DHT22;13304;48.464;8.712;2022-12-18T00:39:37;-6.00;74.80
25352;DHT22;13304;48.464;8.712;2022-12-18T00:42:02;-6.00;74.70
25352;DHT22;13304;48.464;8.712;2022-12-18T00:44:46;-6.10;74.80
25352;DHT22;13304;48.464;8.712;2022-12-18T00:47:12;-6.00;74.80
25352;DHT22;13304;48.464;8.712;2022-12-18T00:49:37;-6.10;74.40
25352;DHT22;13304;48.464;8.712;2022-12-18T00:52:03;-6.10;74.20
25352;DHT22;13304;48.464;8.712;2022-12-18T00:54:29;-6.10;74.30
25352;DHT22;13304;48.464;8.712;2022-12-18T00:56:54;-6.10;74.30
25352;DHT22;13304;48.464;8.712;2022-12-18T00:59:20;-6.10;74.20
25352;DHT22;13304;48.464;8.712;2022-12-18T01:01:46;-6.20;74.00
25352;DHT22;13304;48.464;8.712;2022-12-18T01:04:12;-6.20;74.00
25352;DHT22;13304;48.464;8.712;2022-12-18T01:06:38;-6.20;74.80
25352;DHT22;13304;48.464;8.712;2022-12-18T01:09:05;-6.20;74.10
25352;DHT22;13304;48.464;8.712;2022-12-18T01:11:31;-6.20;74.50
25352;DHT22;13304;48.464;8.712;2022-12-18T01:13:56;-6.20;74.80
25352;DHT22;13304;48.464;8.712;2022-12-18T01:16:25;-6.20;75.00
25352;DHT22;13304;48.464;8.712;2022-12-18T01:18:54;-6.20;75.20
25352;DHT22;13304;48.464;8.712;2022-12-18T01:21:21;-6.10;75.30
25352;DHT22;13304;48.464;8.712;2022-12-18T01:23:51;-6.10;75.60
25352;DHT22;13304;48.464;8.712;2022-12-18T01:26:17;-6.10;75.80
25352;DHT22;13304;48.464;8.712;2022-12-18T01:28:43;-6.00;76.20
25352;DHT22;13304;48.464;8.712;2022-12-18T01:33:45;-5.90;76.70
25352;DHT22;13304;48.464;8.712;2022-12-18T01:36:21;-5.80;76.90
25352;DHT22;13304;48.464;8.712;2022-12-18T01:38:48;-5.80;77.00
25352;DHT22;13304;48.464;8.712;2022-12-18T01:41:19;-5.70;77.20
25352;DHT22;13304;48.464;8.712;2022-12-18T01:46:11;-5.50;77.60
25352;DHT22;13304;48.464;8.712;2022-12-18T01:48:38;-5.50;77.50
25352;DHT22;13304;48.464;8.712;2022-12-18T01:51:06;-5.40;77.50
25352;DHT22;13304;48.464;8.712;2022-12-18T01:53:31;-5.40;77.60
25352;DHT22;13304;48.464;8.712;2022-12-18T01:55:58;-5.30;77.70
25352;DHT22;13304;48.464;8.712;2022-12-18T02:01:06;-5.20;77.80
25352;DHT22;13304;48.464;8.712;2022-12-18T02:03:31;-5.10;78.00
25352;DHT22;13304;48.464;8.712;2022-12-18T02:06:15;-5.10;78.00
25352;DHT22;13304;48.464;8.712;2022-12-18T02:09:14;-5.00;78.00
25352;DHT22;13304;48.464;8.712;2022-12-18T02:12:18;-5.00;77.90
25352;DHT22;13304;48.464;8.712;2022-12-18T02:14:44;-4.90;77.90
25352;DHT22;13304;48.464;8.712;2022-12-18T02:17:33;-4.90;77.70
25352;DHT22;13304;48.464;8.712;2022-12-18T02:27:51;-4.80;78.20
25352;DHT22;13304;48.464;8.712;2022-12-18T02:30:18;-4.80;78.40
25352;DHT22;13304;48.464;8.712;2022-12-18T02:32:48;-4.80;78.50
25352;DHT22;13304;48.464;8.712;2022-12-18T02:35:20;-4.70;78.80
25352;DHT22;13304;48.464;8.712;2022-12-18T02:37:47;-4.70;78.90
25352;DHT22;13304;48.464;8.712;2022-12-18T02:40:14;-4.60;79.10
25352;DHT22;13304;48.464;8.712;2022-12-18T02:42:40;-4.60;79.10
25352;DHT22;13304;48.464;8.712;2022-12-18T02:45:06;-4.60;79.10
25352;DHT22;13304;48.464;8.712;2022-12-18T02:47:36;-4.50;79.20
25352;DHT22;13304;48.464;8.712;2022-12-18T02:50:34;-4.50;79.40
25352;DHT22;13304;48.464;8.712;2022-12-18T02:56:36;-4.40;79.50
25352;DHT22;13304;48.464;8.712;2022-12-18T02:59:32;-4.40;79.50
25352;DHT22;13304;48.464;8.712;2022-12-18T03:07:11;-4.30;79.50
25352;DHT22;13304;48.464;8.712;2022-12-18T03:09:43;-4.20;79.80
25352;DHT22;13304;48.464;8.712;2022-12-18T03:15:09;-4.20;79.90
25352;DHT22;13304;48.464;8.712;2022-12-18T03:17:37;-4.10;80.00
25352;DHT22;13304;48.464;8.712;2022-12-18T03:20:12;-4.10;80.00
25352;DHT22;13304;48.464;8.712;2022-12-18T03:22:41;-4.10;80.00
25352;DHT22;13304;48.464;8.712;2022-12-18T03:25:11;-4.10;80.20
25352;DHT22;13304;48.464;8.712;2022-12-18T03:27:43;-4.00;80.30
25352;DHT22;13304;48.464;8.712;2022-12-18T03:30:13;-4.00;80.30
25352;DHT22;13304;48.464;8.712;2022-12-18T03:35:30;-3.90;80.40
25352;DHT22;13304;48.464;8.712;2022-12-18T03:37:57;-3.90;80.40
25352;DHT22;13304;48.464;8.712;2022-12-18T03:40:29;-3.80;80.50
25352;DHT22;13304;48.464;8.712;2022-12-18T03:43:07;-3.80;80.60
25352;DHT22;13304;48.464;8.712;2022-12-18T03:45:51;-3.80;80.70
25352;DHT22;13304;48.464;8.712;2022-12-18T03:48:31;-3.70;80.80
25352;DHT22;13304;48.464;8.712;2022-12-18T03:51:10;-3.70;80.70
25352;DHT22;13304;48.464;8.712;2022-12-18T03:53:53;-3.70;80.60
25352;DHT22;13304;48.464;8.712;2022-12-18T03:56:22;-3.60;80.60
25352;DHT22;13304;48.464;8.712;2022-12-18T03:58:50;-3.60;80.20
25352;DHT22;13304;48.464;8.712;2022-12-18T04:01:20;-3.60;79.90
25352;DHT22;13304;48.464;8.712;2022-12-18T04:03:48;-3.60;79.90
25352;DHT22;13304;48.464;8.712;2022-12-18T04:06:15;-3.60;79.80
25352;DHT22;13304;48.464;8.712;2022-12-18T04:08:42;-3.60;79.80
25352;DHT22;13304;48.464;8.712;2022-12-18T04:11:08;-3.60;79.70
25352;DHT22;13304;48.464;8.712;2022-12-18T04:13:37;-3.60;79.50
25352;DHT22;13304;48.464;8.712;2022-12-18T04:16:03;-3.60;79.20
25352;DHT22;13304;48.464;8.712;2022-12-18T04:18:30;-3.60;79.20
25352;DHT22;13304;48.464;8.712;2022-12-18T04:20:56;-3.60;79.00
25352;DHT22;13304;48.464;8.712;2022-12-18T04:23:21;-3.60;79.00
25352;DHT22;13304;48.464;8.712;2022-12-18T04:25:47;-3.60;79.10
25352;DHT22;13304;48.464;8.712;2022-12-18T04:28:13;-3.60;79.00
25352;DHT22;13304;48.464;8.712;2022-12-18T04:30:39;-3.60;78.90
25352;DHT22;13304;48.464;8.712;2022-12-18T04:33:09;-3.60;78.90
25352;DHT22;13304;48.464;8.712;2022-12-18T04:35:35;-3.70;78.60
25352;DHT22;13304;48.464;8.712;2022-12-18T04:38:00;-3.70;79.10
25352;DHT22;13304;48.464;8.712;2022-12-18T04:40:26;-3.70;78.60
25352;DHT22;13304;48.464;8.712;2022-12-18T04:42:52;-3.70;78.90
25352;DHT22;13304;48.464;8.712;2022-12-18T04:45:17;-3.70;79.00
25352;DHT22;13304;48.464;8.712;2022-12-18T04:47:43;-3.70;78.80
25352;DHT22;13304;48.464;8.712;2022-12-18T04:50:09;-3.70;78.70
25352;DHT22;13304;48.464;8.712;2022-12-18T04:52:35;-3.70;78.70
25352;DHT22;13304;48.464;8.712;2022-12-18T04:55:00;-3.70;78.80
25352;DHT22;13304;48.464;8.712;2022-12-18T04:57:26;-3.70;78.80
25352;DHT22;13304;48.464;8.712;2022-12-18T04:59:53;-3.70;79.00
25352;DHT22;13304;48.464;8.712;2022-12-18T05:02:18;-3.70;79.20
25352;DHT22;13304;48.464;8.712;2022-12-18T05:04:44;-3.80;79.10
25352;DHT22;13304;48.464;8.712;2022-12-18T05:07:09;-3.80;78.50
25352;DHT22;13304;48.464;8.712;2022-12-18T05:09:35;-3.80;78.30
25352;DHT22;13304;48.464;8.712;2022-12-18T05:12:01;-3.80;78.10
25352;DHT22;13304;48.464;8.712;2022-12-18T05:14:26;-3.80;77.90
25352;DHT22;13304;48.464;8.712;2022-12-18T05:16:54;-3.90;77.50
25352;DHT22;13304;48.464;8.712;2022-12-18T05:19:20;-3.90;77.50
25352;DHT22;13304;48.464;8.712;2022-12-18T05:21:45;-3.90;77.40
25352;DHT22;13304;48.464;8.712;2022-12-18T05:24:11;-4.00;77.10
25352;DHT22;13304;48.464;8.712;2022-12-18T05:26:37;-4.00;76.80
25352;DHT22;13304;48.464;8.712;2022-12-18T05:29:02;-4.00;77.00
25352;DHT22;13304;48.464;8.712;2022-12-18T05:31:28;-4.10;76.80
25352;DHT22;13304;48.464;8.712;2022-12-18T05:33:54;-4.10;76.80
25352;DHT22;13304;48.464;8.712;2022-12-18T05:36:20;-4.20;76.90
25352;DHT22;13304;48.464;8.712;2022-12-18T05:38:45;-4.20;76.80
25352;DHT22;13304;48.464;8.712;2022-12-18T05:41:11;-4.30;76.80
25352;DHT22;13304;48.464;8.712;2022-12-18T05:43:38;-4.30;76.60
25352;DHT22;13304;48.464;8.712;2022-12-18T05:46:06;-4.40;76.50
25352;DHT22;13304;48.464;8.712;2022-12-18T05:48:32;-4.40;76.30
25352;DHT22;13304;48.464;8.712;2022-12-18T05:51:04;-4.40;76.20
25352;DHT22;13304;48.464;8.712;2022-12-18T05:53:30;-4.50;76.00
25352;DHT22;13304;48.464;8.712;2022-12-18T05:56:00;-4.60;75.90
25352;DHT22;13304;48.464;8.712;2022-12-18T05:58:25;-4.60;75.70
25352;DHT22;13304;48.464;8.712;2022-12-18T06:00:51;-4.60;75.70
25352;DHT22;13304;48.464;8.712;2022-12-18T06:03:17;-4.70;75.80
25352;DHT22;13304;48.464;8.712;2022-12-18T06:05:44;-4.70;75.80
25352;DHT22;13304;48.464;8.712;2022-12-18T06:08:11;-4.80;75.60
25352;DHT22;13304;48.464;8.712;2022-12-18T06:10:37;-4.80;75.70
25352;DHT22;13304;48.464;8.712;2022-12-18T06:13:03;-4.90;75.80
25352;DHT22;13304;48.464;8.712;2022-12-18T06:15:29;-4.90;76.00
25352;DHT22;13304;48.464;8.712;2022-12-18T06:17:55;-4.90;76.10
25352;DHT22;13304;48.464;8.712;2022-12-18T06:20:21;-5.00;76.10
25352;DHT22;13304;48.464;8.712;2022-12-18T06:22:47;-5.00;76.20
25352;DHT22;13304;48.464;8.712;2022-12-18T06:25:12;-5.00;76.20
25352;DHT22;13304;48.464;8.712;2022-12-18T06:27:38;-5.00;76.20
25352;DHT22;13304;48.464;8.712;2022-12-18T06:30:04;-5.00;76.20
25352;DHT22;13304;48.464;8.712;2022-12-18T06:32:30;-5.10;76.00
25352;DHT22;13304;48.464;8.712;2022-12-18T06:34:56;-5.10;75.90
25352;DHT22;13304;48.464;8.712;2022-12-18T06:37:22;-5.10;76.00
25352;DHT22;13304;48.464;8.712;2022-12-18T06:39:52;-5.10;76.00
25352;DHT22;13304;48.464;8.712;2022-12-18T06:42:18;-5.20;76.00
25352;DHT22;13304;48.464;8.712;2022-12-18T06:44:43;-5.20;76.00
25352;DHT22;13304;48.464;8.712;2022-12-18T06:47:09;-5.20;76.10
25352;DHT22;13304;48.464;8.712;2022-12-18T06:49:35;-5.20;76.00
25352;DHT22;13304;48.464;8.712;2022-12-18T06:52:00;-5.20;75.90
25352;DHT22;13304;48.464;8.712;2022-12-18T06:54:26;-5.20;75.80
25352;DHT22;13304;48.464;8.712;2022-12-18T06:56:52;-5.20;75.80
25352;DHT22;13304;48.464;8.712;2022-12-18T06:59:17;-5.20;75.90
25352;DHT22;13304;48.464;8.712;2022-12-18T07:01:43;-5.30;75.80
25352;DHT22;13304;48.464;8.712;2022-12-18T07:04:08;-5.30;75.80
25352;DHT22;13304;48.464;8.712;2022-12-18T07:06:34;-5.30;75.80
25352;DHT22;13304;48.464;8.712;2022-12-18T07:09:00;-5.30;75.70
25352;DHT22;13304;48.464;8.712;2022-12-18T07:11:25;-5.30;75.80
25352;DHT22;13304;48.464;8.712;2022-12-18T07:13:52;-5.30;75.80
25352;DHT22;13304;48.464;8.712;2022-12-18T07:16:20;-5.30;75.90
25352;DHT22;13304;48.464;8.712;2022-12-18T07:18:46;-5.30;76.00
25352;DHT22;13304;48.464;8.712;2022-12-18T07:21:17;-5.30;76.00
25352;DHT22;13304;48.464;8.712;2022-12-18T07:23:43;-5.40;75.70
25352;DHT22;13304;48.464;8.712;2022-12-18T07:26:12;-5.40;75.50
25352;DHT22;13304;48.464;8.712;2022-12-18T07:28:39;-5.40;75.40
25352;DHT22;13304;48.464;8.712;2022-12-18T07:31:06;-5.40;75.40
25352;DHT22;13304;48.464;8.712;2022-12-18T07:33:33;-5.40;75.30
25352;DHT22;13304;48.464;8.712;2022-12-18T07:36:00;-5.40;75.30
25352;DHT22;13304;48.464;8.712;2022-12-18T07:38:25;-5.40;75.60
25352;DHT22;13304;48.464;8.712;2022-12-18T07:40:51;-5.40;75.70
25352;DHT22;13304;48.464;8.712;2022-12-18T07:43:17;-5.50;75.40
25352;DHT22;13304;48.464;8.712;2022-12-18T07:45:43;-5.40;75.50
25352;DHT22;13304;48.464;8.712;2022-12-18T07:48:09;-5.50;74.40
25352;DHT22;13304;48.464;8.712;2022-12-18T07:50:35;-5.50;74.70
25352;DHT22;13304;48.464;8.712;2022-12-18T07:53:00;-5.50;75.40
25352;DHT22;13304;48.464;8.712;2022-12-18T07:55:30;-5.50;75.70
25352;DHT22;13304;48.464;8.712;2022-12-18T07:57:55;-5.50;75.90
25352;DHT22;13304;48.464;8.712;2022-12-18T08:00:21;-5.40;76.20
25352;DHT22;13304;48.464;8.712;2022-12-18T08:02:49;-5.50;76.30
25352;DHT22;13304;48.464;8.712;2022-12-18T08:05:15;-5.40;76.40
25352;DHT22;13304;48.464;8.712;2022-12-18T08:07:41;-5.40;75.90
25352;DHT22;13304;48.464;8.712;2022-12-18T08:10:07;-5.40;75.90
25352;DHT22;13304;48.464;8.712;2022-12-18T08:12:32;-5.30;76.10
25352;DHT22;13304;48.464;8.712;2022-12-18T08:14:58;-5.40;76.00
25352;DHT22;13304;48.464;8.712;2022-12-18T08:17:24;-5.30;76.00
25352;DHT22;13304;48.464;8.712;2022-12-18T08:19:49;-5.30;75.70
25352;DHT22;13304;48.464;8.712;2022-12-18T08:22:15;-5.30;75.70
25352;DHT22;13304;48.464;8.712;2022-12-18T08:24:41;-5.30;75.90
25352;DHT22;13304;48.464;8.712;2022-12-18T08:27:06;-5.20;76.10
25352;DHT22;13304;48.464;8.712;2022-12-18T08:29:32;-5.20;76.30
25352;DHT22;13304;48.464;8.712;2022-12-18T08:31:59;-5.20;76.60
25352;DHT22;13304;48.464;8.712;2022-12-18T08:34:24;-5.20;76.70
25352;DHT22;13304;48.464;8.712;2022-12-18T08:36:50;-5.10;76.80
25352;DHT22;13304;48.464;8.712;2022-12-18T08:39:16;-5.10;77.10
25352;DHT22;13304;48.464;8.712;2022-12-18T08:41:41;-5.00;77.40
25352;DHT22;13304;48.464;8.712;2022-12-18T08:44:07;-4.90;77.60
25352;DHT22;13304;48.464;8.712;2022-12-18T08:46:52;-4.90;77.90
25352;DHT22;13304;48.464;8.712;2022-12-18T08:49:17;-4.80;78.30
25352;DHT22;13304;48.464;8.712;2022-12-18T08:51:43;-4.70;78.60
25352;DHT22;13304;48.464;8.712;2022-12-18T08:54:11;-4.60;78.90
25352;DHT22;13304;48.464;8.712;2022-12-18T08:56:38;-4.50;79.20
25352;DHT22;13304;48.464;8.712;2022-12-18T08:59:08;-4.40;79.60
25352;DHT22;13304;48.464;8.712;2022-12-18T09:01:33;-4.30;79.90
25352;DHT22;13304;48.464;8.712;2022-12-18T09:03:59;-4.20;80.10
25352;DHT22;13304;48.464;8.712;2022-12-18T09:06:25;-4.10;80.30
25352;DHT22;13304;48.464;8.712;2022-12-18T09:08:51;-3.90;80.60
25352;DHT22;13304;48.464;8.712;2022-12-18T09:11:25;-3.80;80.70
25352;DHT22;13304;48.464;8.712;2022-12-18T09:13:52;-3.70;81.20
25352;DHT22;13304;48.464;8.712;2022-12-18T09:16:19;-3.50;81.50
25352;DHT22;13304;48.464;8.712;2022-12-18T09:18:45;-3.40;81.70
25352;DHT22;13304;48.464;8.712;2022-12-18T09:21:16;-3.30;81.80
25352;DHT22;13304;48.464;8.712;2022-12-18T09:23:42;-3.20;81.90
25352;DHT22;13304;48.464;8.712;2022-12-18T09:26:08;-3.00;82.00
25352;DHT22;13304;48.464;8.712;2022-12-18T09:28:34;-2.90;81.90
25352;DHT22;13304;48.464;8.712;2022-12-18T09:31:04;-2.80;82.00
25352;DHT22;13304;48.464;8.712;2022-12-18T09:33:31;-2.70;81.80
25352;DHT22;13304;48.464;8.712;2022-12-18T09:35:56;-2.60;81.60
25352;DHT22;13304;48.464;8.712;2022-12-18T09:38:22;-2.50;81.50
25352;DHT22;13304;48.464;8.712;2022-12-18T09:40:53;-2.50;81.20
25352;DHT22;13304;48.464;8.712;2022-12-18T09:46:30;-2.30;81.10
25352;DHT22;13304;48.464;8.712;2022-12-18T09:49:00;-2.30;81.00
25352;DHT22;13304;48.464;8.712;2022-12-18T09:51:33;-2.20;81.00
25352;DHT22;13304;48.464;8.712;2022-12-18T09:54:11;-2.20;81.10
25352;DHT22;13304;48.464;8.712;2022-12-18T09:56:41;-2.10;81.20
25352;DHT22;13304;48.464;8.712;2022-12-18T09:59:24;-2.10;81.20
25352;DHT22;13304;48.464;8.712;2022-12-18T10:01:52;-2.00;81.20
25352;DHT22;13304;48.464;8.712;2022-12-18T10:04:17;-2.00;82.10
25352;DHT22;13304;48.464;8.712;2022-12-18T10:06:51;-1.90;81.50
25352;DHT22;13304;48.464;8.712;2022-12-18T10:09:37;-1.90;81.70
25352;DHT22;13304;48.464;8.712;2022-12-18T10:15:19;-1.80;82.10
25352;DHT22;13304;48.464;8.712;2022-12-18T10:17:54;-1.70;82.20
25352;DHT22;13304;48.464;8.712;2022-12-18T10:20:38;-1.70;82.20
25352;DHT22;13304;48.464;8.712;2022-12-18T10:23:39;-1.60;82.30
25352;DHT22;13304;48.464;8.712;2022-12-18T10:26:11;-1.60;82.30
25352;DHT22;13304;48.464;8.712;2022-12-18T10:28:40;-1.50;82.50
25352;DHT22;13304;48.464;8.712;2022-12-18T10:31:07;-1.40;82.50
25352;DHT22;13304;48.464;8.712;2022-12-18T10:33:37;-1.40;82.60
25352;DHT22;13304;48.464;8.712;2022-12-18T10:36:03;-1.30;82.80
25352;DHT22;13304;48.464;8.712;2022-12-18T10:38:31;-1.20;82.90
25352;DHT22;13304;48.464;8.712;2022-12-18T10:41:05;-1.20;83.00
25352;DHT22;13304;48.464;8.712;2022-12-18T10:43:33;-1.10;83.00
25352;DHT22;13304;48.464;8.712;2022-12-18T10:48:53;-1.00;83.10
25352;DHT22;13304;48.464;8.712;2022-12-18T10:51:29;-0.90;83.10
25352;DHT22;13304;48.464;8.712;2022-12-18T10:54:13;-0.90;83.10
25352;DHT22;13304;48.464;8.712;2022-12-18T10:56:39;-0.90;83.20
25352;DHT22;13304;48.464;8.712;2022-12-18T10:59:08;-0.80;83.30
25352;DHT22;13304;48.464;8.712;2022-12-18T11:01:55;-0.80;83.30
25352;DHT22;13304;48.464;8.712;2022-12-18T11:07:01;-0.70;83.70
25352;DHT22;13304;48.464;8.712;2022-12-18T11:09:30;-0.60;84.00
25352;DHT22;13304;48.464;8.712;2022-12-18T11:11:59;-0.60;84.10
25352;DHT22;13304;48.464;8.712;2022-12-18T11:16:54;-0.50;84.40
25352;DHT22;13304;48.464;8.712;2022-12-18T11:21:56;-0.40;84.70
25352;DHT22;13304;48.464;8.712;2022-12-18T11:24:30;-0.40;84.60
25352;DHT22;13304;48.464;8.712;2022-12-18T11:26:59;-0.40;84.80
25352;DHT22;13304;48.464;8.712;2022-12-18T11:29:35;-0.30;84.90
25352;DHT22;13304;48.464;8.712;2022-12-18T11:32:31;-0.30;84.90
25352;DHT22;13304;48.464;8.712;2022-12-18T11:35:20;-0.30;85.00
25352;DHT22;13304;48.464;8.712;2022-12-18T11:38:23;-0.20;85.00
25352;DHT22;13304;48.464;8.712;2022-12-18T11:40:58;-0.20;85.00
25352;DHT22;13304;48.464;8.712;2022-12-18T11:43:29;-0.10;85.00
25352;DHT22;13304;48.464;8.712;2022-12-18T11:46:07;-0.10;85.10
25352;DHT22;13304;48.464;8.712;2022-12-18T11:48:46;-0.10;85.20
25352;DHT22;13304;48.464;8.712;2022-12-18T11:51:25;0.00;85.30
25352;DHT22;13304;48.464;8.712;2022-12-18T11:53:52;0.00;85.40
25352;DHT22;13304;48.464;8.712;2022-12-18T12:09:54;0.20;85.60
25352;DHT22;13304;48.464;8.712;2022-12-18T12:12:48;0.30;85.50
25352;DHT22;13304;48.464;8.712;2022-12-18T12:23:38;0.40;85.70
25352;DHT22;13304;48.464;8.712;2022-12-18T12:40:27;0.70;85.80
25352;DHT22;13304;48.464;8.712;2022-12-18T12:42:59;0.70;85.70
25352;DHT22;13304;48.464;8.712;2022-12-18T12:48:51;0.70;85.80
25352;DHT22;13304;48.464;8.712;2022-12-18T12:51:30;0.80;85.60
25352;DHT22;13304;48.464;8.712;2022-12-18T12:53:58;0.90;85.70
25352;DHT22;13304;48.464;8.712;2022-12-18T12:56:36;0.90;85.70
25352;DHT22;13304;48.464;8.712;2022-12-18T12:59:22;0.90;85.60
25352;DHT22;13304;48.464;8.712;2022-12-18T13:09:31;1.00;85.30
25352;DHT22;13304;48.464;8.712;2022-12-18T13:12:08;1.00;85.20
25352;DHT22;13304;48.464;8.712;2022-12-18T13:15:12;1.00;85.30
25352;DHT22;13304;48.464;8.712;2022-12-18T13:17:39;1.10;85.40
25352;DHT22;13304;48.464;8.712;2022-12-18T13:20:12;1.10;85.40
25352;DHT22;13304;48.464;8.712;2022-12-18T13:22:50;1.10;85.20
25352;DHT22;13304;48.464;8.712;2022-12-18T13:40:57;1.10;84.70
25352;DHT22;13304;48.464;8.712;2022-12-18T13:43:28;1.20;84.80
25352;DHT22;13304;48.464;8.712;2022-12-18T13:51:35;1.10;84.60
25352;DHT22;13304;48.464;8.712;2022-12-18T13:56:47;1.20;84.80
25352;DHT22;13304;48.464;8.712;2022-12-18T14:04:39;1.10;84.50
25352;DHT22;13304;48.464;8.712;2022-12-18T14:07:16;1.20;84.60
25352;DHT22;13304;48.464;8.712;2022-12-18T14:09:47;1.10;84.50
25352;DHT22;13304;48.464;8.712;2022-12-18T14:12:33;1.20;84.70
25352;DHT22;13304;48.464;8.712;2022-12-18T14:17:54;1.10;84.50
25352;DHT22;13304;48.464;8.712;2022-12-18T14:20:21;1.10;84.60
25352;DHT22;13304;48.464;8.712;2022-12-18T14:22:48;1.10;84.60
25352;DHT22;13304;48.464;8.712;2022-12-18T14:27:45;1.10;84.60
25352;DHT22;13304;48.464;8.712;2022-12-18T14:30:38;1.10;84.60
25352;DHT22;13304;48.464;8.712;2022-12-18T14:33:14;1.10;84.50
25352;DHT22;13304;48.464;8.712;2022-12-18T14:35:51;1.10;84.60
25352;DHT22;13304;48.464;8.712;2022-12-18T14:38:24;1.10;84.50
25352;DHT22;13304;48.464;8.712;2022-12-18T14:40:58;1.10;84.50
25352;DHT22;13304;48.464;8.712;2022-12-18T14:43:26;1.10;84.50
25352;DHT22;13304;48.464;8.712;2022-12-18T14:45:52;1.10;84.40
25352;DHT22;13304;48.464;8.712;2022-12-18T14:48:39;1.10;84.40
25352;DHT22;13304;48.464;8.712;2022-12-18T14:53:43;1.00;84.20
25352;DHT22;13304;48.464;8.712;2022-12-18T14:56:36;1.00;84.10
25352;DHT22;13304;48.464;8.712;2022-12-18T14:59:22;0.90;83.90
25352;DHT22;13304;48.464;8.712;2022-12-18T15:04:45;0.90;83.70
25352;DHT22;13304;48.464;8.712;2022-12-18T15:07:15;0.90;83.70
25352;DHT22;13304;48.464;8.712;2022-12-18T15:09:44;0.80;83.60
25352;DHT22;13304;48.464;8.712;2022-12-18T15:20:44;0.60;83.30
25352;DHT22;13304;48.464;8.712;2022-12-18T15:28:55;0.40;83.40
25352;DHT22;13304;48.464;8.712;2022-12-18T15:31:31;0.30;83.40
25352;DHT22;13304;48.464;8.712;2022-12-18T15:36:24;0.20;83.40
25352;DHT22;13304;48.464;8.712;2022-12-18T15:38:57;0.20;83.60
25352;DHT22;13304;48.464;8.712;2022-12-18T15:41:23;0.10;83.60
25352;DHT22;13304;48.464;8.712;2022-12-18T15:43:51;0.10;83.50
25352;DHT22;13304;48.464;8.712;2022-12-18T15:46:23;0.10;83.50
25352;DHT22;13304;48.464;8.712;2022-12-18T15:48:50;0.00;83.50
25352;DHT22;13304;48.464;8.712;2022-12-18T15:51:26;0.00;83.70
25352;DHT22;13304;48.464;8.712;2022-12-18T15:53:55;0.00;83.70
25352;DHT22;13304;48.464;8.712;2022-12-18T15:56:22;0.00;83.80
25352;DHT22;13304;48.464;8.712;2022-12-18T15:59:11;0.00;83.90
25352;DHT22;13304;48.464;8.712;2022-12-18T16:01:38;-0.10;83.90
25352;DHT22;13304;48.464;8.712;2022-12-18T16:04:04;-0.10;83.90
25352;DHT22;13304;48.464;8.712;2022-12-18T16:06:29;-0.10;83.90
25352;DHT22;13304;48.464;8.712;2022-12-18T16:08:55;-0.10;83.90
25352;DHT22;13304;48.464;8.712;2022-12-18T16:11:23;-0.10;84.00
25352;DHT22;13304;48.464;8.712;2022-12-18T16:14:26;-0.10;84.00
25352;DHT22;13304;48.464;8.712;2022-12-18T16:16:58;-0.10;84.00
25352;DHT22;13304;48.464;8.712;2022-12-18T16:19:24;-0.10;84.10
25352;DHT22;13304;48.464;8.712;2022-12-18T16:21:55;-0.10;84.20
25352;DHT22;13304;48.464;8.712;2022-12-18T16:24:27;-0.10;84.20
25352;DHT22;13304;48.464;8.712;2022-12-18T16:26:54;0.00;84.30
25352;DHT22;13304;48.464;8.712;2022-12-18T16:29:24;-0.10;84.30
25352;DHT22;13304;48.464;8.712;2022-12-18T16:31:53;-0.10;84.40
25352;DHT22;13304;48.464;8.712;2022-12-18T16:36:53;0.00;84.70
25352;DHT22;13304;48.464;8.712;2022-12-18T16:39:19;0.00;84.70
25352;DHT22;13304;48.464;8.712;2022-12-18T16:41:45;0.10;84.80
25352;DHT22;13304;48.464;8.712;2022-12-18T16:44:11;0.10;84.90
25352;DHT22;13304;48.464;8.712;2022-12-18T16:46:37;0.10;84.90
25352;DHT22;13304;48.464;8.712;2022-12-18T16:49:04;0.10;84.80
25352;DHT22;13304;48.464;8.712;2022-12-18T16:51:33;0.20;84.80
25352;DHT22;13304;48.464;8.712;2022-12-18T16:53:59;0.20;84.80
25352;DHT22;13304;48.464;8.712;2022-12-18T16:56:24;0.20;84.70
25352;DHT22;13304;48.464;8.712;2022-12-18T16:58:55;0.20;84.70
25352;DHT22;13304;48.464;8.712;2022-12-18T17:01:22;0.20;84.60
25352;DHT22;13304;48.464;8.712;2022-12-18T17:03:53;0.30;84.80
25352;DHT22;13304;48.464;8.712;2022-12-18T17:06:23;0.30;84.70
25352;DHT22;13304;48.464;8.712;2022-12-18T17:08:55;0.30;84.70
25352;DHT22;13304;48.464;8.712;2022-12-18T17:11:22;0.30;84.70
25352;DHT22;13304;48.464;8.712;2022-12-18T17:13:48;0.30;84.70
25352;DHT22;13304;48.464;8.712;2022-12-18T17:16:13;0.30;84.70
25352;DHT22;13304;48.464;8.712;2022-12-18T17:18:39;0.30;84.60
25352;DHT22;13304;48.464;8.712;2022-12-18T17:21:05;0.30;84.50
25352;DHT22;13304;48.464;8.712;2022-12-18T17:23:34;0.30;84.60
25352;DHT22;13304;48.464;8.712;2022-12-18T17:26:00;0.30;84.60
25352;DHT22;13304;48.464;8.712;2022-12-18T17:28:26;0.40;85.60
25352;DHT22;13304;48.464;8.712;2022-12-18T17:30:53;0.30;85.00
25352;DHT22;13304;48.464;8.712;2022-12-18T17:33:19;0.30;85.10
25352;DHT22;13304;48.464;8.712;2022-12-18T17:35:45;0.40;86.20
25352;DHT22;13304;48.464;8.712;2022-12-18T17:38:11;0.40;85.40
25352;DHT22;13304;48.464;8.712;2022-12-18T17:40:37;0.40;85.50
25352;DHT22;13304;48.464;8.712;2022-12-18T17:43:08;0.40;85.50
25352;DHT22;13304;48.464;8.712;2022-12-18T17:45:35;0.40;85.60
25352;DHT22;13304;48.464;8.712;2022-12-18T17:48:02;0.40;85.60
25352;DHT22;13304;48.464;8.712;2022-12-18T17:50:34;0.40;85.60
25352;DHT22;13304;48.464;8.712;2022-12-18T17:53:08;0.50;85.70
25352;DHT22;13304;48.464;8.712;2022-12-18T17:55:34;0.40;85.60
25352;DHT22;13304;48.464;8.712;2022-12-18T17:57:59;0.50;85.80
25352;DHT22;13304;48.464;8.712;2022-12-18T18:00:25;0.50;86.00
25352;DHT22;13304;48.464;8.712;2022-12-18T18:02:51;0.50;86.20
25352;DHT22;13304;48.464;8.712;2022-12-18T18:05:17;0.50;86.10
25352;DHT22;13304;48.464;8.712;2022-12-18T18:07:42;0.50;86.20
25352;DHT22;13304;48.464;8.712;2022-12-18T18:10:08;0.50;86.40
25352;DHT22;13304;48.464;8.712;2022-12-18T18:12:35;0.50;86.60
25352;DHT22;13304;48.464;8.712;2022-12-18T18:15:20;0.60;86.70
25352;DHT22;13304;48.464;8.712;2022-12-18T18:17:45;0.50;86.50
25352;DHT22;13304;48.464;8.712;2022-12-18T18:20:11;0.60;86.60
25352;DHT22;13304;48.464;8.712;2022-12-18T18:22:41;0.60;86.70